Fort Myer, Virginia
Current Conditions -  °F | °C
As of 11:52 PM on Sunday 19 Oct 2014 (Local Time) from KDCA Reporting Station
Clear Clear  
Wind Chill: 51°   Ceiling: Unl
Heat Index: 51°   Visibility: 10mi
Dew Point: 34°   Wind: 7mph
Humidity: 52%   Direction: 270°W
Pressure: 30.13"   Gusts: NA
Location:  38.88°N, 77.08°W
Report Text: KDCA 200352Z 27006KT 10SM CLR 11/01 A3013 RMK AO2 SLP201 T01060011
Loading
Personal Weather Stations






























Interactive Weather Map New forecast layout! Learn more

10-Day Weather Forecast

Advertisements
Track Severe Weather on mobile